createdAt,value
2022-09-12T00:03:40.141Z,10.9
2022-09-12T00:08:38.163Z,10.8
2022-09-12T00:13:39.588Z,10.7
2022-09-12T00:18:33.780Z,10.6
2022-09-12T00:23:31.781Z,10.5
2022-09-12T00:28:29.739Z,10.4
2022-09-12T00:33:27.635Z,10.4
2022-09-12T00:38:25.517Z,10.4
2022-09-12T00:43:23.748Z,10.4
2022-09-12T00:48:21.668Z,10.3
2022-09-12T00:53:19.563Z,10.3
2022-09-12T00:58:17.473Z,10.1
2022-09-12T01:03:15.500Z,10.1
2022-09-12T01:08:13.650Z,10
2022-09-12T01:13:11.465Z,9.9
2022-09-12T01:18:09.601Z,9.9
2022-09-12T01:23:07.748Z,9.8
2022-09-12T01:28:05.762Z,9.8
2022-09-12T01:33:03.823Z,9.9
2022-09-12T01:38:01.539Z,9.7
2022-09-12T01:42:59.505Z,9.6
2022-09-12T01:47:57.515Z,9.5
2022-09-12T01:52:55.547Z,9.5
2022-09-12T01:57:53.608Z,9.4
2022-09-12T02:02:51.759Z,9.6
2022-09-12T02:07:49.723Z,9.5
2022-09-12T02:12:47.976Z,9.5
2022-09-12T02:17:45.744Z,9.4
2022-09-12T02:22:43.819Z,9.5
2022-09-12T02:27:41.932Z,9.5
2022-09-12T02:32:39.856Z,9.5
2022-09-12T02:37:37.703Z,9.4
2022-09-12T02:42:35.647Z,9.4
2022-09-12T02:47:33.536Z,9.4
2022-09-12T02:52:31.366Z,9.3
2022-09-12T02:57:29.337Z,9.2
2022-09-12T03:02:27.310Z,9.1
2022-09-12T03:07:25.117Z,9
2022-09-12T03:12:23.114Z,9
2022-09-12T03:17:21.140Z,8.9
2022-09-12T03:22:19.287Z,8.8
2022-09-12T03:27:17.042Z,8.7
2022-09-12T03:32:14.695Z,8.6
2022-09-12T03:37:12.751Z,8.6
2022-09-12T03:42:10.734Z,8.4
2022-09-12T03:47:11.178Z,8.5
2022-09-12T03:52:06.634Z,8.4
2022-09-12T03:57:04.722Z,8.4
2022-09-12T04:02:02.819Z,8.4
2022-09-12T04:07:00.717Z,8.5
2022-09-12T04:11:58.929Z,8.7
2022-09-12T04:16:56.748Z,8.6
2022-09-12T04:21:54.915Z,8.7
2022-09-12T04:26:53.061Z,8.9
2022-09-12T04:31:51.321Z,9.3
2022-09-12T04:36:49.919Z,9.9
2022-09-12T04:41:48.361Z,10.3
2022-09-12T04:46:46.798Z,10.9
2022-09-12T04:51:45.550Z,11.5
2022-09-12T04:56:43.853Z,12.1
2022-09-12T05:01:42.571Z,12.8
2022-09-12T05:06:41.243Z,13.8
2022-09-12T05:12:03.547Z,14.8
2022-09-12T05:16:39.876Z,16.4
2022-09-12T05:21:37.735Z,15.7
2022-09-12T05:26:35.158Z,14.6
2022-09-12T05:31:32.945Z,14.3
2022-09-12T05:36:31.118Z,14.3
2022-09-12T05:41:31.454Z,16.4
2022-09-12T05:46:30.280Z,18.5
2022-09-12T05:51:29.237Z,17.1
2022-09-12T05:56:29.830Z,20.6
2022-09-12T06:01:29.834Z,22.5
2022-09-12T06:06:29.214Z,23.7
2022-09-12T06:11:27.324Z,23.8
2022-09-12T06:16:25.216Z,24.2
2022-09-12T06:21:23.907Z,24.9
2022-09-12T06:26:25.319Z,24.9
2022-09-12T06:31:23.154Z,25.5
2022-09-12T06:36:21.811Z,27
2022-09-12T06:54:59.397Z,24.6
2022-09-12T06:59:58.944Z,27.8
2022-09-12T07:04:56.044Z,25.2
2022-09-12T07:09:56.700Z,28.4
2022-09-12T07:14:56.479Z,28
2022-09-12T07:19:56.240Z,30.8
2022-09-12T07:24:55.336Z,28.6
2022-09-12T07:29:49.895Z,27.7
2022-09-12T07:34:49.377Z,27.1
2022-09-12T07:39:45.794Z,26.3
2022-09-12T07:44:41.377Z,24.2
2022-09-12T07:49:39.565Z,27
2022-09-12T07:54:39.273Z,27.5
2022-09-12T07:59:51.838Z,25.6
2022-09-12T08:04:35.389Z,27.4
2022-09-12T08:09:32.100Z,25.3
2022-09-12T08:14:26.942Z,22.8
2022-09-12T08:19:29.899Z,29.2
2022-09-12T08:24:25.455Z,25.5
2022-09-12T08:29:21.246Z,24.4
2022-09-12T08:34:20.381Z,25.8
2022-09-12T08:39:19.453Z,28.9
2022-09-12T08:44:19.712Z,31.5
2022-09-12T08:49:18.775Z,33.5
2022-09-12T08:54:14.832Z,32.3
2022-09-12T08:59:08.979Z,27
2022-09-12T09:04:10.794Z,29.4
2022-09-12T09:09:05.697Z,25.5
2022-09-12T09:14:05.724Z,26.6
2022-09-12T09:19:00.568Z,22.8
2022-09-12T09:23:56.647Z,20.8
2022-09-12T09:28:54.925Z,25.3
2022-09-12T09:33:58.240Z,29.8
2022-09-12T09:38:59.072Z,29.1
2022-09-12T09:43:51.753Z,25.5
2022-09-12T09:48:54.160Z,28.5
2022-09-12T09:53:52.579Z,27.2
2022-09-12T09:58:48.036Z,24.3
2022-09-12T10:03:43.299Z,21.9
2022-09-12T10:08:41.660Z,25
2022-09-12T10:13:42.856Z,29.1
2022-09-12T10:18:43.042Z,25.7
2022-09-12T10:23:36.429Z,21.9
2022-09-12T10:28:33.019Z,21
2022-09-12T10:33:31.474Z,22.4
2022-09-12T10:38:32.472Z,24.5
2022-09-12T10:43:28.477Z,21.1
2022-09-12T10:48:24.730Z,19.5
2022-09-12T10:53:22.385Z,19.8
2022-09-12T10:58:21.274Z,20.9
2022-09-12T11:03:21.511Z,24.8
2022-09-12T11:08:21.293Z,23.9
2022-09-12T11:13:20.677Z,29.2
2022-09-12T11:18:22.566Z,30.6
2022-09-12T11:23:15.285Z,23.4
2022-09-12T11:28:11.250Z,24.9
2022-09-12T11:33:14.916Z,32
2022-09-12T11:38:13.610Z,26.4
2022-09-12T11:43:07.303Z,21.6
2022-09-12T11:48:07.056Z,20.3
2022-09-12T11:53:02.448Z,19.9
2022-09-12T11:58:00.314Z,20.5
2022-09-12T12:02:58.899Z,21.2
2022-09-12T12:07:58.076Z,22.6
2022-09-12T12:12:55.955Z,22.4
2022-09-12T12:17:53.236Z,20.5
2022-09-12T12:22:55.069Z,20.6
2022-09-12T12:27:51.407Z,19.6
2022-09-12T12:32:49.485Z,20.4
2022-09-12T12:37:48.167Z,21.2
2022-09-12T12:42:46.075Z,20.6
2022-09-12T12:47:44.763Z,20.9
2022-09-12T12:52:43.690Z,22
2022-09-12T12:57:44.966Z,20.8
2022-09-12T13:02:43.000Z,22.4
2022-09-12T13:07:40.427Z,22.1
2022-09-12T13:12:37.712Z,20.5
2022-09-12T13:17:34.594Z,19.1
2022-09-12T13:22:31.966Z,18.8
2022-09-12T13:27:30.096Z,18.6
2022-09-12T13:32:28.691Z,19
2022-09-12T13:37:26.891Z,19.4
2022-09-12T13:42:24.374Z,18.7
2022-09-12T13:47:22.809Z,19.1
2022-09-12T13:52:20.924Z,19.2
2022-09-12T13:57:19.462Z,19.7
2022-09-12T14:02:17.965Z,20.1
2022-09-12T14:07:17.022Z,21.3
2022-09-12T14:12:15.631Z,21.5
2022-09-12T14:17:16.137Z,21
2022-09-12T14:22:10.512Z,20
2022-09-12T14:27:07.793Z,19.3
2022-09-12T14:32:05.566Z,19.1
2022-09-12T14:37:03.777Z,19.5
2022-09-12T14:42:02.115Z,19.7
2022-09-12T14:47:00.322Z,19.8
2022-09-12T14:51:58.823Z,20.4
2022-09-12T14:56:56.803Z,19.8
2022-09-12T15:01:54.667Z,20
2022-09-12T15:06:52.613Z,19.4
2022-09-12T15:11:50.357Z,19.6
2022-09-12T15:16:48.237Z,19.1
2022-09-12T15:21:45.911Z,18.6
2022-09-12T15:26:43.727Z,18.7
2022-09-12T15:31:45.051Z,18.2
2022-09-12T15:36:41.771Z,17.7
2022-09-12T15:41:39.256Z,17.2
2022-09-12T15:46:36.738Z,16.7
2022-09-12T15:51:34.105Z,16
2022-09-12T15:56:31.593Z,15.5
2022-09-12T16:01:29.450Z,15.1
2022-09-12T16:06:27.057Z,14.7
2022-09-12T16:11:24.902Z,14.3
2022-09-12T16:16:22.824Z,14.1
2022-09-12T16:21:20.742Z,13.7
2022-09-12T16:26:18.649Z,13.4
2022-09-12T16:31:16.368Z,13.1
2022-09-12T16:36:14.375Z,12.9
2022-09-12T16:41:12.322Z,12.7
2022-09-12T16:46:10.255Z,12.4
2022-09-12T16:51:08.165Z,12.2
2022-09-12T16:56:06.082Z,11.9
2022-09-12T17:01:04.199Z,11.7
2022-09-12T17:06:02.062Z,11.5
2022-09-12T17:11:00.251Z,11.4
2022-09-12T17:15:58.317Z,11.3
2022-09-12T17:20:56.364Z,11.3
2022-09-12T17:25:54.531Z,11.3
2022-09-12T17:30:56.592Z,11.3
2022-09-12T17:35:53.848Z,11.3
2022-09-12T17:40:59.323Z,11.4
2022-09-12T17:45:50.411Z,11.6
2022-09-12T17:50:48.873Z,11.8
2022-09-12T17:55:49.604Z,11.9
2022-09-12T18:00:48.420Z,11.9
2022-09-12T18:05:45.971Z,11.7
2022-09-12T18:10:44.082Z,11.4
2022-09-12T18:15:42.211Z,11.1
2022-09-12T18:20:40.161Z,10.9
2022-09-12T18:25:38.173Z,10.8
2022-09-12T18:30:36.141Z,10.6
2022-09-12T18:35:34.137Z,10.6
2022-09-12T18:40:32.199Z,10.5
2022-09-12T18:45:30.244Z,10.5
2022-09-12T18:50:28.143Z,10.3
2022-09-12T18:55:26.153Z,10.2
2022-09-12T19:00:24.123Z,10
2022-09-12T19:05:22.101Z,9.8
2022-09-12T19:10:20.056Z,9.8
2022-09-12T19:15:18.315Z,9.8
2022-09-12T19:20:16.499Z,9.7
2022-09-12T19:25:14.597Z,9.8
2022-09-12T19:30:12.946Z,10
2022-09-12T19:35:11.143Z,10.1
2022-09-12T19:40:09.359Z,10.3
2022-09-12T19:45:07.486Z,10.3
2022-09-12T19:50:05.757Z,10.3
2022-09-12T19:55:03.808Z,10.2
2022-09-12T20:00:01.629Z,10
2022-09-12T20:04:59.994Z,9.9
2022-09-12T20:09:57.977Z,9.8
2022-09-12T20:14:55.899Z,9.6
2022-09-12T20:19:53.960Z,9.5
2022-09-12T20:24:52.007Z,9.4
2022-09-12T20:29:49.923Z,9.2
2022-09-12T20:34:47.868Z,9.2
2022-09-12T20:39:49.002Z,9.1
2022-09-12T20:44:44.272Z,9.2
2022-09-12T20:49:42.316Z,9.1
2022-09-12T20:54:40.379Z,9.1
2022-09-12T20:59:38.375Z,9.1
2022-09-12T21:04:36.523Z,8.9
2022-09-12T21:09:34.466Z,8.8
2022-09-12T21:14:32.542Z,8.6
2022-09-12T21:19:30.405Z,8.6
2022-09-12T21:24:28.577Z,8.6
2022-09-12T21:29:26.628Z,8.5
2022-09-12T21:34:24.460Z,8.4
2022-09-12T21:39:22.357Z,8.3
2022-09-12T21:44:20.454Z,8.3
2022-09-12T21:49:18.582Z,8.4
2022-09-12T21:54:16.806Z,8.2
2022-09-12T21:59:15.149Z,8.1
2022-09-12T22:04:13.164Z,8.1
2022-09-12T22:09:11.487Z,8
2022-09-12T22:14:09.556Z,7.9
2022-09-12T22:19:07.677Z,7.9
2022-09-12T22:24:05.830Z,7.7
2022-09-12T22:29:04.064Z,7.9
2022-09-12T22:34:02.120Z,8.2
2022-09-12T22:39:00.670Z,8.5
2022-09-12T22:43:58.982Z,8.6
2022-09-12T22:48:57.221Z,8.6
2022-09-12T22:53:55.323Z,8.6
2022-09-12T22:58:53.661Z,8.8
2022-09-12T23:03:51.950Z,8.9
2022-09-12T23:08:50.129Z,8.9
2022-09-12T23:13:48.102Z,8.6
2022-09-12T23:18:46.180Z,8.4
2022-09-12T23:23:44.078Z,8.1
2022-09-12T23:28:42.291Z,8
2022-09-12T23:33:40.208Z,7.8
2022-09-12T23:38:38.379Z,7.8
2022-09-12T23:43:36.530Z,7.8
2022-09-12T23:48:34.384Z,7.7
2022-09-12T23:53:32.516Z,7.7
2022-09-12T23:58:30.596Z,7.5
